Overview Statistics Trail Chart Weather Telemetry Raw packets
 

This is the latest recevied weather packets stored in our database for station/object IW1RID-3. If no packets are shown the sender has not sent any weather packets the latest 10 day(s).

<< 8 9 10 11 12 13 14 >>
Time Temp. Humidity Pressure Rain* Wind** Luminosity Snow
1788365352 30° C 63% 1075.7 hPa - - - -
1788364145 30° C 62% 1075.7 hPa - - - -
1788362940 31.11° C 58% 1075.8 hPa - - - -
1788361736 32.22° C 54% 1075.8 hPa - - - -
1788360531 31.11° C 56% 1076.1 hPa - - - -
1788359326 31.67° C 56% 1076.2 hPa - - - -
1788358121 30.56° C 58% 1076.4 hPa - - - -
1788356916 31.11° C 58% 1076.6 hPa - - - -
1788355711 30.56° C 60% 1076.7 hPa - - - -
1788354506 30.56° C 61% 1076.7 hPa - - - -
1788353300 30.56° C 60% 1076.7 hPa - - - -
1788351927 30° C 63% 1077 hPa - - - -
1788350723 28.89° C 67% 1076.8 hPa - - - -
1788349518 28.89° C 67% 1077 hPa - - - -
1788348311 28.89° C 67% 1077 hPa - - - -
1788347107 28.33° C 67% 1077.1 hPa - - - -
1788345902 28.33° C 67% 1077.2 hPa - - - -
1788344698 27.22° C 72% 1077.4 hPa - - - -
1788343493 26.67° C 75% 1077.5 hPa - - - -
1788342289 27.78° C 71% 1077.5 hPa - - - -
1788341084 27.22° C 72% 1077.4 hPa - - - -
1788339879 26.67° C 73% 1077.2 hPa - - - -
1788338674 26.67° C 71% 1077.2 hPa - - - -
1788337470 26.11° C 68% 1077 hPa - - - -
1788336265 25.56° C 62% 1077 hPa - - - -

* Rain since midnight (hover to see other rain measurements)
** Current wind speed in m/s (hover to see current wind gust speed)